Decoded Metar for USSS (SVERDLOVSK in RUSSIA) (IATA:SVX) | Meteo·Mobile Aviation Weather
aviador You're here:

USSS Decoded Metar

SVERDLOVSK in RUSSIA
Report Time2019-02-17 07:00:00
UTC Time2019-02-17 07:37:15
Flight Rules mvfr MVFR
WindCalm
Visibility6000 m
Phenomena:N/A
Clouds:Scattered 016 Hf
Expected CloudBase > 400 ft AGL from Temp-Dew spread
CeilingNone
Temp-9°C (ISA -22)
Dew Point-10°C (93% RH)
AAT-12.1°C
QNH0997 hPa
Density Alt-1,440 ft
Elevation764 ft
Report Wrong Elevation
Raw Report
USSS 170700Z 00000MPS 6000 SCT016 M09/M10 Q0997 R26R/490337 NOSIG
RMK QFE727/0970=

Extra information for USSS:More info

Metar Taf Metar & Taf Last 4 Metars F.Rules Stats Wind Profile Meteogram Temp Stats Airport Information Weather charts Add Link Nearby VenuesMetar ALERT Operation Metar Decoded Social comments